Flight Track Log - Related Links

Times and Time Zones

All times are in EDT time to prevent confusion due to time zone crossing. See the AAY862 flight status page for this flight to view local times or setup timezone preferences in your user account.

Time Position Orientation Groundspeed Altitude Reporting Facility
EDT Latitude Longitude Course Direction KTS MPH feet Rate Location/Type
Thu 04:08:16 PM 27.9000 -82.6833 180° South 208 239 500  Level Tampa TRACON
Thu 04:09:04 PM 27.8500 -82.6833 180° South 194 223 1,900 1,824 Climbing Tampa TRACON
Thu 04:09:58 PM 27.8167 -82.7167 221° Southwest 228 262 3,600 2,124 Climbing Tampa TRACON
Thu 04:12:02 PM 27.9372 -82.8197 323° Northwest 268 308 8,200 2,173 Climbing Jacksonville Center
Thu 04:13:03 PM 28.0122 -82.8503 340° North 273 314 10,300 1,736 Climbing Jacksonville Center
Thu 04:14:03 PM 28.1103 -82.8408 North 294 338 11,700 1,361 Climbing Jacksonville Center
Thu 04:15:02 PM 28.2189 -82.8289 North 347 399 13,000 1,916 Climbing Jacksonville Center
Thu 04:16:02 PM 28.3272 -82.8125 North 377 434 15,500 2,281 Climbing Jacksonville Center
Thu 04:17:03 PM 28.4358 -82.8264 354° North 382 440 17,600 1,800 Climbing Jacksonville Center
Thu 04:18:02 PM 28.5403 -82.8808 335° Northwest 387 445 19,100 1,664 Climbing Jacksonville Center
Thu 04:19:02 PM 28.6467 -82.9328 337° Northwest 402 463 20,900 1,686 Climbing Jacksonville Center
Thu 04:20:03 PM 28.7614 -82.9919 336° Northwest 415 478 22,500 1,450 Climbing Jacksonville Center
Thu 04:21:02 PM 28.8739 -83.0467 337° Northwest 421 484 23,800 1,513 Climbing Jacksonville Center
Thu 04:22:02 PM 28.9886 -83.1014 337° Northwest 435 501 25,500 1,537 Climbing Jacksonville Center
Thu 04:23:03 PM 29.1033 -83.1589 336° Northwest 440 506 26,900 1,500 Climbing Jacksonville Center
Thu 04:24:02 PM 29.2119 -83.2161 335° Northwest 434 499 28,500 1,563 Climbing Jacksonville Center
Thu 04:25:02 PM 29.3203 -83.2831 332° Northwest 429 494 30,000 793 Climbing Jacksonville Center
Thu 04:26:03 PM 29.4244 -83.3481 331° Northwest 429 494 30,100 600 Climbing Jacksonville Center
Thu 04:27:02 PM 29.5158 -83.4319 321° Northwest 424 488 31,200 958 Climbing Jacksonville Center
Thu 04:28:02 PM 29.6136 -83.5017 328° Northwest 424 488 32,000 397 Climbing Jacksonville Center
Thu 04:29:03 PM 29.7242 -83.5503 339° North 418 481 32,000  Level Jacksonville Center
Thu 04:30:02 PM 29.8367 -83.6036 338° Northwest 424 488 32,000  Level Jacksonville Center
Thu 04:31:02 PM 29.9447 -83.6525 339° North 424 488 32,000  Level Jacksonville Center
Thu 04:32:02 PM 30.0553 -83.7036 338° Northwest 424 488 32,000  Level Jacksonville Center
Thu 04:33:02 PM 30.1656 -83.7550 338° Northwest 424 488 32,000  Level Jacksonville Center
Thu 04:34:02 PM 30.2758 -83.8067 338° Northwest 424 488 32,000  Level Jacksonville Center
Thu 04:35:02 PM 30.3839 -83.8606 337° Northwest 424 488 32,000  Level Jacksonville Center
Thu 04:36:02 PM 30.4942 -83.9100 339° North 424 488 32,000  Level Jacksonville Center
Thu 04:37:03 PM 30.6022 -83.9642 337° Northwest 424 488 32,000  Level Jacksonville Center
Thu 04:38:03 PM 30.7147 -84.0139 339° North 424 488 32,000  Level Jacksonville Center
Thu 04:39:02 PM 30.8247 -84.0683 337° Northwest 424 488 32,000  Level Jacksonville Center
Thu 04:40:02 PM 30.9369 -84.1206 338° Northwest 424 488 32,000  Level Jacksonville Center
Thu 04:41:03 PM 31.0492 -84.1753 337° Northwest 424 488 32,000  Level Jacksonville Center
Thu 04:42:02 PM 31.1614 -84.2278 338° Northwest 424 488 32,000  Level Jacksonville Center
Thu 04:43:03 PM 31.2717 -84.2806 338° Northwest 429 494 32,000  Level Jacksonville Center
Thu 04:44:03 PM 31.3817 -84.3333 338° Northwest 429 494 32,000  Level Jacksonville Center
Thu 04:45:34 PM 31.5414 -84.4117 337° Northwest 435 501 32,000  Level Atlanta Center
Thu 04:46:34 PM 31.6519 -84.4658 337° Northwest 435 501 32,000  Level Atlanta Center
Thu 04:47:34 PM 31.7644 -84.5200 338° Northwest 435 501 32,000  Level Atlanta Center
Thu 04:48:34 PM 31.8769 -84.5769 337° Northwest 435 501 32,000  Level Atlanta Center
Thu 04:49:34 PM 31.9978 -84.6364 337° Northwest 435 501 32,000  Level Atlanta Center
Thu 04:50:34 PM 32.1122 -84.6886 339° North 435 501 32,000  Level Atlanta Center
Thu 04:51:34 PM 32.2247 -84.7458 337° Northwest 430 495 32,000  Level Atlanta Center
Thu 04:52:34 PM 32.3369 -84.7983 338° Northwest 430 495 32,000  Level Atlanta Center
Thu 04:53:34 PM 32.4494 -84.8536 337° Northwest 436 502 32,000  Level Atlanta Center
Thu 04:54:34 PM 32.5617 -84.9064 338° Northwest 436 502 32,000  Level Atlanta Center
Thu 04:55:34 PM 32.6742 -84.9642 337° Northwest 430 495 32,000  Level Atlanta Center
Thu 04:56:34 PM 32.7883 -85.0172 339° North 430 495 32,000  Level Atlanta Center
Thu 04:57:34 PM 32.9028 -85.0828 334° Northwest 437 503 32,000  Level Atlanta Center
Thu 04:58:34 PM 33.0150 -85.1386 337° Northwest 437 503 32,000  Level Atlanta Center
Thu 04:59:34 PM 33.1272 -85.1972 336° Northwest 437 503 32,000  Level Atlanta Center
Thu 05:00:34 PM 33.2414 -85.2533 338° Northwest 437 503 32,000  Level Atlanta Center
Thu 05:01:34 PM 33.3431 -85.3044 337° Northwest 437 503 32,000  Level Atlanta Center
Thu 05:02:34 PM 33.4575 -85.3611 338° Northwest 436 502 32,000  Level Atlanta Center
Thu 05:03:34 PM 33.5717 -85.4175 338° Northwest 442 509 32,000  Level Atlanta Center
Thu 05:04:34 PM 33.6836 -85.4742 337° Northwest 436 502 32,000  Level Atlanta Center
Thu 05:05:34 PM 33.8103 -85.5389 337° Northwest 441 507 32,000  Level Atlanta Center
Thu 05:06:34 PM 33.9264 -85.5986 337° Northwest 441 507 32,000  Level Atlanta Center
Thu 05:07:34 PM 34.0403 -85.6558 337° Northwest 441 507 32,000  Level Atlanta Center
Thu 05:08:34 PM 34.1522 -85.7156 336° Northwest 442 509 32,000  Level Atlanta Center
Thu 05:09:34 PM 34.2683 -85.7731 338° Northwest 442 509 32,000  Level Atlanta Center
Thu 05:10:34 PM 34.3783 -85.8258 338° Northwest 437 503 32,000  Level Atlanta Center
Thu 05:11:34 PM 34.4942 -85.8861 337° Northwest 432 497 32,000  Level Atlanta Center
Thu 05:12:34 PM 34.6061 -85.9442 337° Northwest 432 497 32,000  Level Atlanta Center
Thu 05:13:34 PM 34.7197 -86.0050 336° Northwest 437 503 32,000  Level Atlanta Center
Thu 05:14:34 PM 34.8336 -86.0633 337° Northwest 437 503 32,000  Level Atlanta Center
Thu 05:15:34 PM 34.9433 -86.1267 335° Northwest 432 497 32,000  Level Atlanta Center
Thu 05:16:08 PM 35.0072 -86.1589 338° Northwest 430 495 32,000  Level Memphis Center
Thu 05:17:08 PM 35.1050 -86.2122 336° Northwest 430 495 32,000  Level Memphis Center
Thu 05:18:08 PM 35.2175 -86.2728 336° Northwest 430 495 32,000  Level Memphis Center
Thu 05:19:08 PM 35.3383 -86.3356 337° Northwest 430 495 32,000  Level Memphis Center
Thu 05:20:08 PM 35.4553 -86.3986 336° Northwest 436 502 32,000  Level Memphis Center
Thu 05:21:08 PM 35.5678 -86.4622 335° Northwest 436 502 32,000  Level Memphis Center
Thu 05:22:08 PM 35.6800 -86.5183 338° Northwest 446 513 32,000  Level Memphis Center
Thu 05:23:08 PM 35.7967 -86.5794 337° Northwest 446 513 32,000  Level Memphis Center
Thu 05:24:08 PM 35.9089 -86.6433 335° Northwest 441 507 32,000  Level Memphis Center
Thu 05:25:08 PM 36.0214 -86.7025 337° Northwest 441 507 32,000  Level Memphis Center
Thu 05:26:08 PM 36.1336 -86.7642 336° Northwest 441 507 32,000  Level Memphis Center
Thu 05:27:08 PM 36.2353 -86.8192 336° Northwest 441 507 32,000  Level Memphis Center
Thu 05:28:08 PM 36.3453 -86.8786 336° Northwest 446 513 32,000  Level Memphis Center
Thu 05:29:08 PM 36.4786 -86.9503 337° Northwest 463 533 32,000  Level Memphis Center
Thu 05:30:08 PM 36.5867 -87.0103 336° Northwest 447 514 32,000  Level Memphis Center
Thu 05:31:08 PM 36.6986 -87.0703 337° Northwest 442 509 32,000  Level Memphis Center
Thu 05:32:08 PM 36.8086 -87.1333 335° Northwest 435 501 32,000  Level Memphis Center
Thu 05:33:08 PM 36.9206 -87.1936 337° Northwest 435 501 32,000  Level Memphis Center
Thu 05:34:41 PM 37.0872 -87.2858 336° Northwest 440 506 32,000  Level Kansas City Center
Thu 05:35:32 PM 37.1806 -87.3367 337° Northwest 434 499 32,000  Level Indianapolis Center
Thu 05:36:35 PM 37.2786 -87.4253 324° Northwest 432 497 32,000  Level Indianapolis Center
Thu 05:37:37 PM 37.3669 -87.5303 317° Northwest 432 497 32,000  Level Indianapolis Center
Thu 05:38:39 PM 37.4575 -87.6342 318° Northwest 437 503 32,000  Level Indianapolis Center
Thu 05:39:41 PM 37.5481 -87.7419 317° Northwest 441 507 32,000  Level Indianapolis Center
Thu 05:40:43 PM 37.6589 -87.8583 320° Northwest 446 513 32,000  Level Indianapolis Center
Thu 05:41:45 PM 37.7564 -87.9564 322° Northwest 445 512 32,000  Level Indianapolis Center
Thu 05:42:47 PM 37.8422 -88.0681 314° West 443 510 32,000  Level Indianapolis Center
Thu 05:43:49 PM 37.9314 -88.1758 316° Northwest 441 507 32,000  Level Indianapolis Center
Thu 05:44:51 PM 38.0219 -88.2831 317° Northwest 442 509 32,000  Level Indianapolis Center
Thu 05:45:53 PM 38.1047 -88.3964 313° West 435 501 32,000  Level Indianapolis Center
Thu 05:46:55 PM 38.1739 -88.5258 304° West 441 507 32,000  Level Indianapolis Center
Thu 05:47:57 PM 38.2450 -88.6531 305° West 440 506 32,000  Level Indianapolis Center
Thu 05:48:59 PM 38.3319 -88.8064 306° West 440 506 32,000  Level Indianapolis Center
Thu 05:50:01 PM 38.4242 -88.9169 317° Northwest 453 521 32,000  Level Indianapolis Center
Thu 05:51:03 PM 38.5225 -89.0158 322° Northwest 448 516 32,000  Level Indianapolis Center
Thu 05:52:05 PM 38.6200 -89.1186 321° Northwest 452 520 32,000  Level Indianapolis Center
Thu 05:53:18 PM 38.7422 -89.2519 320° Northwest 454 522 32,000  Level Kansas City Center
Thu 05:54:20 PM 38.8464 -89.3625 320° Northwest 455 524 32,000  Level Kansas City Center
Thu 05:55:22 PM 38.9436 -89.4664 320° Northwest 456 525 32,000  Level Kansas City Center
Thu 05:56:24 PM 39.0575 -89.5689 325° Northwest 467 537 32,000  Level Kansas City Center
Thu 05:57:26 PM 39.1675 -89.6567 328° Northwest 467 537 32,000  Level Kansas City Center
Thu 05:58:28 PM 39.2667 -89.7367 328° Northwest 467 537 32,000  Level Kansas City Center
Thu 05:59:30 PM 39.3769 -89.8233 329° Northwest 466 536 32,000  Level Kansas City Center
Thu 06:00:32 PM 39.5078 -89.9292 328° Northwest 465 535 32,000  Level Kansas City Center
Thu 06:01:34 PM 39.6150 -90.0167 328° Northwest 461 531 32,000  Level Kansas City Center
Thu 06:02:36 PM 39.7214 -90.1039 328° Northwest 456 525 32,000  Level Kansas City Center
Thu 06:03:38 PM 39.8286 -90.1906 328° Northwest 456 525 32,000  Level Kansas City Center
Thu 06:04:40 PM 39.9358 -90.2789 328° Northwest 455 524 32,000 -67 Level Kansas City Center
Thu 06:05:07 PM 40.0008 -90.3331 327° Northwest 458 527 31,900  Descending Chicago Center
Thu 06:06:09 PM 40.1103 -90.4222 328° Northwest 461 531 32,000 48 Climbing Chicago Center
Thu 06:07:11 PM 40.2181 -90.5119 328° Northwest 457 526 32,000  Level Chicago Center
Thu 06:08:13 PM 40.3269 -90.6028 328° Northwest 460 529 32,000  Level Chicago Center
Thu 06:09:15 PM 40.4350 -90.6911 328° Northwest 457 526 32,000  Level Chicago Center
Thu 06:10:17 PM 40.5431 -90.7836 327° Northwest 462 532 32,000  Level Chicago Center
Thu 06:11:19 PM 40.6517 -90.8736 328° Northwest 459 528 32,000  Level Chicago Center
Thu 06:12:21 PM 40.7594 -90.9647 327° Northwest 459 528 32,000 -919 Level Chicago Center
Thu 06:13:23 PM 40.8833 -91.0864 323° Northwest 466 536 30,100 -1,742 Descending Chicago Center
Thu 06:14:25 PM 40.9783 -91.1972 319° Northwest 458 527 28,400 -1,152 Descending Chicago Center
Thu 06:15:28 PM 41.0667 -91.3100 316° Northwest 445 512 27,700 -1,584 Descending Chicago Center
Thu 06:16:30 PM 41.1569 -91.4242 316° Northwest 446 513 25,100 -2,806 Descending Chicago Center
Thu 06:17:32 PM 41.2589 -91.5425 319° Northwest 449 517 21,900 -2,758 Descending Chicago Center
Thu 06:18:34 PM 41.3753 -91.5842 345° North 438 504 19,400 -2,758 Descending Chicago Center
Thu 06:19:36 PM 41.4911 -91.5478 13° North 431 496 16,200 -3,339 Descending Chicago Center
Thu 06:20:38 PM 41.6006 -91.5178 12° North 408 470 12,500 -2,516 Descending Chicago Center
Thu 06:21:40 PM 41.7172 -91.4942 North 350 403 11,000 -1,935 Descending Chicago Center
Thu 06:22:42 PM 41.7939 -91.4581 19° North 302 348 8,500 -2,371 Descending Chicago Center
Thu 06:23:44 PM 41.8469 -91.3797 48° Northeast 301 346 6,100 -2,129 Descending Chicago Center
Thu 06:24:46 PM 41.8900 -91.4431 312° West 286 329 4,100 -1,536 Descending Chicago Center
Thu 06:25:49 PM 41.8822 -91.5481 264° West 255 293 2,900 -1,008 Descending Chicago Center
Thu 06:26:51 PM 41.8831 -91.6189 271° West 225 259 2,000 -726 Descending Chicago Center
Thu 06:27:53 PM 41.8836 -91.6836 271° West 200 230 1,400 -581 Descending Chicago Center

Login

Don't have an account? Register now (free) for customized features, flight alerts, and more!